CGMPW KSEA-CYVR
Flight info
| Callsign | CGMPW |
|---|---|
| Flight time | 0h 29m |
| Altitude | 20000 |
| Route | PAE GRIZZ9 |
| Aircraft | PC24/L-SBDGIRWY/LB2 |
Departure
| Time | 2026-05-04 07:01 |
|---|---|
| Airport | Seattle–Tacoma International Airport (KSEA) |
Arrival
| Time | 2026-05-04 07:30 |
|---|---|
| Airport | Vancouver International Airport (CYVR) |
| Time | Latitude | Longitude | Altitude | Speed | Heading |
|---|---|---|---|---|---|
| 2026-05-04 06:52 | 47.43508 | -122.30450 | 389 ft | 0 kts | 135° |
| 2026-05-04 06:59 | 47.43523 | -122.30426 | 389 ft | 11 kts | 341° |
| 2026-05-04 06:59 | 47.43548 | -122.30545 | 389 ft | 0 kts | 271° |
| 2026-05-04 06:59 | 47.43440 | -122.30551 | 389 ft | 39 kts | 180° |
| 2026-05-04 06:59 | 47.43240 | -122.30574 | 389 ft | 23 kts | 202° |
| 2026-05-04 07:01 | 47.46435 | -122.30894 | 1089 ft | 208 kts | 359° |
| 2026-05-04 07:01 | 47.47875 | -122.30959 | 1610 ft | 205 kts | 359° |
| 2026-05-04 07:02 | 47.49274 | -122.30837 | 2082 ft | 199 kts | 7° |
| 2026-05-04 07:02 | 47.50635 | -122.30584 | 2563 ft | 194 kts | 6° |
| 2026-05-04 07:02 | 47.51971 | -122.30419 | 3043 ft | 190 kts | 2° |
| 2026-05-04 07:02 | 47.53262 | -122.30333 | 3507 ft | 186 kts | 2° |
| 2026-05-04 07:03 | 47.54537 | -122.30257 | 4022 ft | 177 kts | 2° |
| 2026-05-04 07:03 | 47.55705 | -122.30181 | 4728 ft | 159 kts | 2° |
| 2026-05-04 07:03 | 47.56776 | -122.30113 | 5166 ft | 158 kts | 2° |
| 2026-05-04 07:03 | 47.57915 | -122.30036 | 5411 ft | 169 kts | 2° |
| 2026-05-04 07:04 | 47.59121 | -122.29958 | 5680 ft | 177 kts | 2° |
| 2026-05-04 07:04 | 47.60380 | -122.29875 | 5952 ft | 184 kts | 2° |
| 2026-05-04 07:04 | 47.61684 | -122.29788 | 6225 ft | 191 kts | 2° |
| 2026-05-04 07:04 | 47.63035 | -122.29700 | 6481 ft | 197 kts | 2° |
| 2026-05-04 07:05 | 47.64409 | -122.29608 | 6730 ft | 202 kts | 2° |
| 2026-05-04 07:05 | 47.65837 | -122.29515 | 6981 ft | 207 kts | 2° |
| 2026-05-04 07:05 | 47.67292 | -122.29419 | 7237 ft | 212 kts | 3° |
| 2026-05-04 07:05 | 47.68780 | -122.29320 | 7489 ft | 216 kts | 4° |
| 2026-05-04 07:06 | 47.71831 | -122.29118 | 7987 ft | 223 kts | 4° |
| 2026-05-04 07:06 | 47.73394 | -122.29015 | 8241 ft | 225 kts | 4° |
| 2026-05-04 07:06 | 47.74972 | -122.28911 | 8498 ft | 228 kts | 4° |
| 2026-05-04 07:07 | 47.76506 | -122.28809 | 8737 ft | 216 kts | 4° |
| 2026-05-04 07:08 | 47.90742 | -122.27864 | 10643 ft | 329 kts | 4° |
| 2026-05-04 07:09 | 47.93025 | -122.28065 | 10870 ft | 330 kts | 350° |
| 2026-05-04 07:09 | 47.95284 | -122.28765 | 11116 ft | 331 kts | 350° |
| 2026-05-04 07:09 | 47.97564 | -122.29389 | 11362 ft | 333 kts | 351° |
| 2026-05-04 07:09 | 47.99848 | -122.30031 | 11610 ft | 334 kts | 350° |
| 2026-05-04 07:10 | 48.02135 | -122.30689 | 11858 ft | 335 kts | 350° |
| 2026-05-04 07:10 | 48.04391 | -122.31347 | 12100 ft | 335 kts | 349° |
| 2026-05-04 07:12 | 48.20499 | -122.36029 | 13882 ft | 340 kts | 349° |
| 2026-05-04 07:12 | 48.22795 | -122.36697 | 14112 ft | 341 kts | 349° |
| 2026-05-04 07:12 | 48.25127 | -122.37380 | 14353 ft | 341 kts | 349° |
| 2026-05-04 07:12 | 48.27461 | -122.38059 | 14581 ft | 342 kts | 349° |
| 2026-05-04 07:13 | 48.29799 | -122.38746 | 14815 ft | 342 kts | 349° |
| 2026-05-04 07:13 | 48.32140 | -122.39429 | 15054 ft | 343 kts | 349° |
| 2026-05-04 07:13 | 48.34487 | -122.40119 | 15295 ft | 344 kts | 349° |
| 2026-05-04 07:14 | 48.43925 | -122.42890 | 16187 ft | 350 kts | 349° |
| 2026-05-04 07:14 | 48.46348 | -122.43603 | 16391 ft | 351 kts | 349° |
| 2026-05-04 07:15 | 48.48729 | -122.44304 | 16300 ft | 356 kts | 349° |
| 2026-05-04 07:15 | 48.51145 | -122.45019 | 15855 ft | 348 kts | 349° |
| 2026-05-04 07:15 | 48.53481 | -122.45708 | 15405 ft | 336 kts | 349° |
| 2026-05-04 07:15 | 48.55746 | -122.46379 | 14966 ft | 329 kts | 349° |
| 2026-05-04 07:16 | 48.57993 | -122.47039 | 14533 ft | 327 kts | 349° |
| 2026-05-04 07:16 | 48.60228 | -122.47700 | 14095 ft | 327 kts | 349° |
| 2026-05-04 07:16 | 48.62460 | -122.48361 | 13661 ft | 327 kts | 349° |
| 2026-05-04 07:16 | 48.64661 | -122.49018 | 13208 ft | 326 kts | 349° |
| 2026-05-04 07:17 | 48.66876 | -122.49672 | 12775 ft | 323 kts | 349° |
| 2026-05-04 07:17 | 48.69078 | -122.50326 | 12338 ft | 321 kts | 349° |
| 2026-05-04 07:17 | 48.71132 | -122.51575 | 11876 ft | 321 kts | 326° |
| 2026-05-04 07:17 | 48.72726 | -122.53898 | 11658 ft | 318 kts | 310° |
| 2026-05-04 07:18 | 48.74099 | -122.56573 | 11415 ft | 322 kts | 308° |
| 2026-05-04 07:18 | 48.75447 | -122.59282 | 11152 ft | 320 kts | 309° |
| 2026-05-04 07:18 | 48.76779 | -122.61894 | 10893 ft | 303 kts | 310° |
| 2026-05-04 07:18 | 48.78019 | -122.64293 | 10644 ft | 282 kts | 310° |
| 2026-05-04 07:19 | 48.79199 | -122.66588 | 10407 ft | 270 kts | 310° |
| 2026-05-04 07:19 | 48.80346 | -122.68829 | 10193 ft | 267 kts | 310° |
| 2026-05-04 07:19 | 48.81483 | -122.71052 | 9984 ft | 267 kts | 310° |
| 2026-05-04 07:19 | 48.82627 | -122.73289 | 9769 ft | 269 kts | 310° |
| 2026-05-04 07:20 | 48.83779 | -122.75546 | 9539 ft | 270 kts | 310° |
| 2026-05-04 07:20 | 48.84932 | -122.77807 | 9311 ft | 270 kts | 310° |
| 2026-05-04 07:20 | 48.86070 | -122.80037 | 9088 ft | 269 kts | 310° |
| 2026-05-04 07:20 | 48.87214 | -122.82285 | 8870 ft | 268 kts | 310° |
| 2026-05-04 07:22 | 48.95342 | -122.98320 | 6847 ft | 288 kts | 308° |
| 2026-05-04 07:22 | 48.96759 | -123.00349 | 6425 ft | 284 kts | 333° |
| 2026-05-04 07:23 | 48.98651 | -123.00967 | 6045 ft | 273 kts | 3° |
| 2026-05-04 07:23 | 49.00412 | -123.00279 | 5705 ft | 253 kts | 23° |
| 2026-05-04 07:23 | 49.01982 | -122.99262 | 5383 ft | 239 kts | 24° |
| 2026-05-04 07:23 | 49.03477 | -122.98301 | 5079 ft | 228 kts | 23° |
| 2026-05-04 07:24 | 49.04929 | -122.97397 | 4784 ft | 222 kts | 22° |
| 2026-05-04 07:24 | 49.06334 | -122.96528 | 4494 ft | 214 kts | 22° |
| 2026-05-04 07:24 | 49.07693 | -122.95688 | 4217 ft | 207 kts | 22° |
| 2026-05-04 07:24 | 49.09010 | -122.94868 | 3952 ft | 202 kts | 22° |
| 2026-05-04 07:25 | 49.10265 | -122.94089 | 3703 ft | 186 kts | 21° |
| 2026-05-04 07:26 | 49.16384 | -122.98315 | 2286 ft | 141 kts | 289° |
| 2026-05-04 07:27 | 49.16595 | -122.99776 | 2105 ft | 140 kts | 279° |
| 2026-05-04 07:27 | 49.16762 | -123.01208 | 1915 ft | 139 kts | 282° |
| 2026-05-04 07:27 | 49.16925 | -123.02593 | 1758 ft | 127 kts | 281° |
| 2026-05-04 07:27 | 49.17071 | -123.03879 | 1557 ft | 120 kts | 282° |
| 2026-05-04 07:28 | 49.17215 | -123.05133 | 1406 ft | 121 kts | 281° |
| 2026-05-04 07:28 | 49.17364 | -123.06400 | 1267 ft | 122 kts | 281° |
| 2026-05-04 07:28 | 49.17507 | -123.07658 | 1103 ft | 117 kts | 281° |
| 2026-05-04 07:28 | 49.17648 | -123.08877 | 942 ft | 116 kts | 281° |
| 2026-05-04 07:29 | 49.17788 | -123.10086 | 794 ft | 114 kts | 281° |
| 2026-05-04 07:29 | 49.17922 | -123.11262 | 647 ft | 113 kts | 282° |
| 2026-05-04 07:29 | 49.18060 | -123.12461 | 485 ft | 113 kts | 281° |
| 2026-05-04 07:29 | 49.18194 | -123.13619 | 339 ft | 111 kts | 282° |
| 2026-05-04 07:30 | 49.18315 | -123.14789 | 203 ft | 116 kts | 281° |
| 2026-05-04 07:30 | 49.18461 | -123.16024 | 82 ft | 110 kts | 283° |
| 2026-05-04 07:30 | 49.18596 | -123.17161 | 15 ft | 103 kts | 280° |
| 2026-05-04 07:30 | 49.18676 | -123.17916 | 15 ft | 39 kts | 279° |
| 2026-05-04 07:31 | 49.18649 | -123.18092 | 15 ft | 15 kts | 156° |
| 2026-05-04 07:33 | 40.70126 | -74.00779 | 10 ft | 0 kts | 155° |